• Join FlightAware (Why Join?)
  • Login
  • US Flag 
08:33PM EST


 

Airport Tracker/Info


-or-


 

Live Flight TrackerFlight Track Log ✈ GGN7281 ✈ 24-Apr-2013 ✈ KROC - CYYZ

Flight Track Log - Related Links

Times and Time Zones

All times are in EDT time to prevent confusion due to time zone crossing. See the GGN7281 flight status page for this flight to view local times or setup timezone preferences in your user account.

Time Position Orientation Groundspeed Altitude Reporting Facility
EDT Latitude Longitude Course Direction KTS MPH feet Rate Location/Type
08:01PM 43.1222 -77.6847 272° West 146 168 1,100  Level Cleveland Center
08:01PM 43.1228 -77.7131 272° West 126 145 2,400 1,800 Climbing Cleveland Center
08:03PM 43.1328 -77.7753 282° West 137 158 4,700 1,740 Climbing Cleveland Center
08:04PM 43.1358 -77.8236 275° West 137 158 6,700 2,040 Climbing Cleveland Center
08:05PM 43.1433 -77.8717 282° West 137 158 8,800 1,680 Climbing Cleveland Center
08:06PM 43.1486 -77.9225 278° West 137 158 10,100 960 Climbing Cleveland Center
08:07PM 43.1586 -77.9906 281° West 161 185 10,800 960 Climbing Cleveland Center
08:08PM 43.1642 -78.0614 276° West 179 206 12,100 600 Climbing Cleveland Center
08:09PM 43.1742 -78.1350 281° West 190 219 12,100  Level Cleveland Center
08:10PM 43.1819 -78.2086 278° West 195 224 12,100  Level Cleveland Center
08:11PM 43.1897 -78.2769 279° West 195 224 12,100  Level Cleveland Center
08:12PM 43.1972 -78.3419 279° West 195 224 12,100 -60 Level Cleveland Center
08:13PM 43.2022 -78.3903 278° West 165 190 12,000 -60 Descending Cleveland Center
08:14PM 43.2053 -78.4414 275° West 147 169 12,000  Level Cleveland Center
08:15PM 43.2103 -78.4897 278° West 141 162 12,000  Level Cleveland Center
08:16PM 43.2153 -78.5408 278° West 141 162 12,000  Level Cleveland Center
08:17PM 43.2225 -78.5919 281° West 141 162 12,000  Level Cleveland Center
08:18PM 43.2275 -78.6458 277° West 141 162 12,000  Level Cleveland Center
08:19PM 43.2347 -78.6969 281° West 141 162 12,000  Level Cleveland Center
08:20PM 43.2397 -78.7481 278° West 141 162 12,000  Level Cleveland Center
08:21PM 43.2447 -78.7992 278° West 141 162 12,000  Level Cleveland Center
08:22PM 43.2517 -78.8475 281° West 141 162 12,000  Level Cleveland Center
08:23PM 43.2567 -78.8958 278° West 141 162 12,000  Level Cleveland Center
08:23PM 43.2500 -78.9000 204° Southwest 130 150 12,000  Level Toronto Center
08:24PM 43.2500 -78.9667 270° West 130 150 12,000  Level Toronto Center
08:25PM 43.2667 -79.0167 295° West 140 161 12,000  Level Toronto Center
08:26PM 43.2667 -79.0667 270° West 140 161 12,000  Level Toronto Center
08:27PM 43.2667 -79.1333 270° West 140 161 12,000  Level Toronto Center
08:28PM 43.2667 -79.1833 270° West 140 161 12,000  Level Toronto Center
08:29PM 43.2167 -79.1500 154° Southeast 150 173 12,000 -60 Level Toronto Center
08:30PM 43.1833 -79.1333 160° South 170 196 11,900 -300 Descending Toronto Center
08:31PM 43.1500 -79.1500 200° South 140 161 11,400 -840 Descending Toronto Center
08:32PM 43.1500 -79.2000 270° West 150 173 10,300 -1,380 Descending Toronto Center
08:33PM 43.1500 -79.2667 270° West 160 184 8,700 -1,500 Descending Toronto Center
08:34PM 43.2000 -79.3167 324° Northwest 190 219 7,300 -900 Descending Toronto Center
08:35PM 43.2500 -79.3167 360° North 200 230 7,000 -120 Descending Toronto Center
08:36PM 43.3000 -79.3333 346° North 190 219 7,100  Climbing Toronto Center
08:37PM 43.3500 -79.3167 14° North 210 242 7,100 -540 Level Toronto Center
08:38PM 43.4167 -79.2833 20° North 200 230 6,100 -1,200 Descending Toronto Center
08:39PM 43.4500 -79.3167 324° Northwest 170 196 4,800 -1,320 Descending Toronto Center
08:40PM 43.4667 -79.3500 305° West 150 173 3,500 -900 Descending Toronto Center
08:41PM 43.5000 -79.4000 313° West 150 173 3,100 -240 Descending Toronto Center
08:42PM 43.5333 -79.4500 313° West 150 173 3,100  Level Toronto Center
08:43PM 43.5500 -79.4667 324° Northwest 130 150 3,100 -180 Level Toronto Center
08:44PM 43.5833 -79.5167 313° West 130 150 2,800 -600 Descending Toronto Center
08:45PM 43.6167 -79.5333 340° North 130 150 2,000 -780 Descending Toronto Center
08:46PM 43.6333 -79.5833 295° West 130 150 1,300 -720 Descending Toronto Center
08:47PM 43.6667 -79.6167 324° Northwest 110 127 600 -360 Descending Toronto Center
08:48PM 43.6667 -79.6333 270° West 70 81 600  Level Toronto Center